sensor_id;sensor_type;location;lat;lon;timestamp;P1;durP1;ratioP1;P2;durP2;ratioP2
15132;SDS011;7667;51.232;17.110;2023-02-02T00:01:48;11.17;;;2.27;;
15132;SDS011;7667;51.232;17.110;2023-02-02T00:04:33;4.17;;;2.03;;
15132;SDS011;7667;51.232;17.110;2023-02-02T00:07:02;6.57;;;1.93;;
15132;SDS011;7667;51.232;17.110;2023-02-02T00:09:31;5.50;;;1.83;;
15132;SDS011;7667;51.232;17.110;2023-02-02T00:11:59;8.73;;;2.40;;
15132;SDS011;7667;51.232;17.110;2023-02-02T00:14:27;8.10;;;2.23;;
15132;SDS011;7667;51.232;17.110;2023-02-02T00:16:55;6.97;;;2.20;;
15132;SDS011;7667;51.232;17.110;2023-02-02T00:19:28;5.63;;;2.00;;
15132;SDS011;7667;51.232;17.110;2023-02-02T00:21:57;8.77;;;2.10;;
15132;SDS011;7667;51.232;17.110;2023-02-02T00:24:24;10.40;;;2.30;;
15132;SDS011;7667;51.232;17.110;2023-02-02T00:26:53;4.70;;;1.77;;
15132;SDS011;7667;51.232;17.110;2023-02-02T00:29:27;6.03;;;2.00;;
15132;SDS011;7667;51.232;17.110;2023-02-02T00:31:56;7.77;;;2.10;;
15132;SDS011;7667;51.232;17.110;2023-02-02T00:34:24;6.00;;;1.87;;
15132;SDS011;7667;51.232;17.110;2023-02-02T00:36:51;6.20;;;1.83;;
15132;SDS011;7667;51.232;17.110;2023-02-02T00:39:20;8.23;;;2.07;;
15132;SDS011;7667;51.232;17.110;2023-02-02T00:41:53;7.90;;;2.10;;
15132;SDS011;7667;51.232;17.110;2023-02-02T00:44:21;7.17;;;2.13;;
15132;SDS011;7667;51.232;17.110;2023-02-02T00:47:07;6.43;;;1.70;;
15132;SDS011;7667;51.232;17.110;2023-02-02T00:49:34;5.67;;;1.80;;
15132;SDS011;7667;51.232;17.110;2023-02-02T00:52:02;7.27;;;1.87;;
15132;SDS011;7667;51.232;17.110;2023-02-02T00:54:29;7.17;;;1.90;;
15132;SDS011;7667;51.232;17.110;2023-02-02T00:56:57;6.67;;;2.07;;
15132;SDS011;7667;51.232;17.110;2023-02-02T00:59:24;5.20;;;1.80;;
15132;SDS011;7667;51.232;17.110;2023-02-02T01:01:52;4.87;;;1.73;;
15132;SDS011;7667;51.232;17.110;2023-02-02T01:04:19;8.80;;;2.20;;
15132;SDS011;7667;51.232;17.110;2023-02-02T01:06:47;7.87;;;1.97;;
15132;SDS011;7667;51.232;17.110;2023-02-02T01:09:14;6.40;;;1.70;;
15132;SDS011;7667;51.232;17.110;2023-02-02T01:11:42;3.47;;;1.70;;
15132;SDS011;7667;51.232;17.110;2023-02-02T01:14:09;8.90;;;2.10;;
15132;SDS011;7667;51.232;17.110;2023-02-02T01:16:37;7.13;;;2.33;;
15132;SDS011;7667;51.232;17.110;2023-02-02T01:19:04;5.73;;;1.83;;
15132;SDS011;7667;51.232;17.110;2023-02-02T01:21:32;6.27;;;1.70;;
15132;SDS011;7667;51.232;17.110;2023-02-02T01:23:59;5.87;;;1.90;;
15132;SDS011;7667;51.232;17.110;2023-02-02T01:26:26;8.63;;;2.03;;
15132;SDS011;7667;51.232;17.110;2023-02-02T01:28:54;9.03;;;1.60;;
15132;SDS011;7667;51.232;17.110;2023-02-02T01:31:21;8.00;;;2.07;;
15132;SDS011;7667;51.232;17.110;2023-02-02T01:33:49;5.30;;;1.80;;
15132;SDS011;7667;51.232;17.110;2023-02-02T01:36:18;10.07;;;1.80;;
15132;SDS011;7667;51.232;17.110;2023-02-02T01:38:48;7.00;;;1.90;;
15132;SDS011;7667;51.232;17.110;2023-02-02T01:41:18;6.00;;;1.90;;
15132;SDS011;7667;51.232;17.110;2023-02-02T01:46:26;7.30;;;1.53;;
15132;SDS011;7667;51.232;17.110;2023-02-02T01:49:09;6.90;;;1.73;;
15132;SDS011;7667;51.232;17.110;2023-02-02T01:51:48;5.77;;;2.10;;
15132;SDS011;7667;51.232;17.110;2023-02-02T01:54:24;10.80;;;2.47;;
15132;SDS011;7667;51.232;17.110;2023-02-02T01:57:16;7.10;;;1.77;;
15132;SDS011;7667;51.232;17.110;2023-02-02T01:59:54;6.93;;;1.57;;
15132;SDS011;7667;51.232;17.110;2023-02-02T02:02:24;5.33;;;1.40;;
15132;SDS011;7667;51.232;17.110;2023-02-02T02:04:54;6.13;;;1.60;;
15132;SDS011;7667;51.232;17.110;2023-02-02T02:07:22;6.40;;;1.77;;
15132;SDS011;7667;51.232;17.110;2023-02-02T02:09:50;5.13;;;1.40;;
15132;SDS011;7667;51.232;17.110;2023-02-02T02:12:17;6.03;;;1.60;;
15132;SDS011;7667;51.232;17.110;2023-02-02T02:14:46;4.60;;;1.50;;
15132;SDS011;7667;51.232;17.110;2023-02-02T02:24:13;6.47;;;1.50;;
15132;SDS011;7667;51.232;17.110;2023-02-02T02:39:26;6.27;;;1.70;;
15132;SDS011;7667;51.232;17.110;2023-02-02T02:42:18;5.37;;;1.47;;
15132;SDS011;7667;51.232;17.110;2023-02-02T02:44:50;7.60;;;1.53;;
15132;SDS011;7667;51.232;17.110;2023-02-02T02:47:19;5.00;;;1.60;;
15132;SDS011;7667;51.232;17.110;2023-02-02T02:49:48;5.30;;;1.53;;
15132;SDS011;7667;51.232;17.110;2023-02-02T02:52:15;5.40;;;1.60;;
15132;SDS011;7667;51.232;17.110;2023-02-02T02:54:44;6.57;;;1.70;;
15132;SDS011;7667;51.232;17.110;2023-02-02T03:05:53;6.60;;;1.57;;
15132;SDS011;7667;51.232;17.110;2023-02-02T03:11:18;4.57;;;1.67;;
15132;SDS011;7667;51.232;17.110;2023-02-02T03:13:47;7.00;;;2.10;;
15132;SDS011;7667;51.232;17.110;2023-02-02T03:16:15;7.43;;;1.93;;
15132;SDS011;7667;51.232;17.110;2023-02-02T03:18:43;5.03;;;1.60;;
15132;SDS011;7667;51.232;17.110;2023-02-02T03:21:11;7.27;;;1.93;;
15132;SDS011;7667;51.232;17.110;2023-02-02T03:23:38;8.20;;;1.83;;
15132;SDS011;7667;51.232;17.110;2023-02-02T03:26:06;6.17;;;2.07;;
15132;SDS011;7667;51.232;17.110;2023-02-02T03:28:33;5.37;;;1.83;;
15132;SDS011;7667;51.232;17.110;2023-02-02T03:31:02;6.67;;;1.90;;
15132;SDS011;7667;51.232;17.110;2023-02-02T03:33:30;5.27;;;1.80;;
15132;SDS011;7667;51.232;17.110;2023-02-02T03:36:01;7.73;;;1.97;;
15132;SDS011;7667;51.232;17.110;2023-02-02T03:38:29;6.10;;;1.97;;
15132;SDS011;7667;51.232;17.110;2023-02-02T03:40:56;6.67;;;1.87;;
15132;SDS011;7667;51.232;17.110;2023-02-02T03:43:24;6.90;;;1.63;;
15132;SDS011;7667;51.232;17.110;2023-02-02T03:45:55;7.27;;;1.97;;
15132;SDS011;7667;51.232;17.110;2023-02-02T03:48:30;7.83;;;2.00;;
15132;SDS011;7667;51.232;17.110;2023-02-02T03:51:03;5.13;;;1.70;;
15132;SDS011;7667;51.232;17.110;2023-02-02T03:53:37;6.63;;;1.97;;
15132;SDS011;7667;51.232;17.110;2023-02-02T03:56:06;7.37;;;1.90;;
15132;SDS011;7667;51.232;17.110;2023-02-02T03:58:33;8.23;;;1.90;;
15132;SDS011;7667;51.232;17.110;2023-02-02T04:01:01;4.63;;;1.30;;
15132;SDS011;7667;51.232;17.110;2023-02-02T04:03:35;4.87;;;1.50;;
15132;SDS011;7667;51.232;17.110;2023-02-02T04:06:03;7.70;;;2.63;;
15132;SDS011;7667;51.232;17.110;2023-02-02T04:08:30;6.83;;;2.00;;
15132;SDS011;7667;51.232;17.110;2023-02-02T04:10:59;5.37;;;1.80;;
15132;SDS011;7667;51.232;17.110;2023-02-02T04:13:27;6.90;;;2.00;;
15132;SDS011;7667;51.232;17.110;2023-02-02T04:15:55;7.67;;;2.10;;
15132;SDS011;7667;51.232;17.110;2023-02-02T04:18:25;7.43;;;1.90;;
15132;SDS011;7667;51.232;17.110;2023-02-02T04:20:59;6.50;;;2.00;;
15132;SDS011;7667;51.232;17.110;2023-02-02T04:23:30;6.70;;;2.03;;
15132;SDS011;7667;51.232;17.110;2023-02-02T04:25:58;5.07;;;2.00;;
15132;SDS011;7667;51.232;17.110;2023-02-02T04:28:26;6.10;;;1.67;;
15132;SDS011;7667;51.232;17.110;2023-02-02T04:30:54;5.90;;;2.00;;
15132;SDS011;7667;51.232;17.110;2023-02-02T04:33:23;6.30;;;1.47;;
15132;SDS011;7667;51.232;17.110;2023-02-02T04:35:52;7.00;;;2.00;;
15132;SDS011;7667;51.232;17.110;2023-02-02T04:38:19;4.50;;;1.67;;
15132;SDS011;7667;51.232;17.110;2023-02-02T04:40:47;6.93;;;1.80;;
15132;SDS011;7667;51.232;17.110;2023-02-02T04:43:15;8.90;;;2.10;;
15132;SDS011;7667;51.232;17.110;2023-02-02T04:45:42;6.50;;;1.80;;
15132;SDS011;7667;51.232;17.110;2023-02-02T04:48:10;5.67;;;1.63;;
15132;SDS011;7667;51.232;17.110;2023-02-02T04:50:38;9.10;;;1.87;;
15132;SDS011;7667;51.232;17.110;2023-02-02T04:53:05;6.50;;;1.70;;
15132;SDS011;7667;51.232;17.110;2023-02-02T04:55:36;5.63;;;1.50;;
15132;SDS011;7667;51.232;17.110;2023-02-02T04:58:04;3.23;;;1.20;;
15132;SDS011;7667;51.232;17.110;2023-02-02T05:00:32;6.70;;;1.70;;
15132;SDS011;7667;51.232;17.110;2023-02-02T05:02:59;5.50;;;1.63;;
15132;SDS011;7667;51.232;17.110;2023-02-02T05:05:27;7.33;;;2.00;;
15132;SDS011;7667;51.232;17.110;2023-02-02T05:07:54;7.97;;;2.00;;
15132;SDS011;7667;51.232;17.110;2023-02-02T05:10:22;6.70;;;1.80;;
15132;SDS011;7667;51.232;17.110;2023-02-02T05:12:51;7.07;;;1.70;;
15132;SDS011;7667;51.232;17.110;2023-02-02T05:15:20;7.47;;;1.90;;
15132;SDS011;7667;51.232;17.110;2023-02-02T05:17:48;7.03;;;1.70;;
15132;SDS011;7667;51.232;17.110;2023-02-02T05:20:16;7.97;;;1.97;;
15132;SDS011;7667;51.232;17.110;2023-02-02T05:22:47;5.57;;;1.60;;
15132;SDS011;7667;51.232;17.110;2023-02-02T05:25:15;5.17;;;1.70;;
15132;SDS011;7667;51.232;17.110;2023-02-02T05:27:43;5.43;;;1.80;;
15132;SDS011;7667;51.232;17.110;2023-02-02T05:30:12;6.70;;;1.90;;
15132;SDS011;7667;51.232;17.110;2023-02-02T05:32:40;4.30;;;1.40;;
15132;SDS011;7667;51.232;17.110;2023-02-02T05:35:08;6.37;;;1.60;;
15132;SDS011;7667;51.232;17.110;2023-02-02T05:37:36;7.37;;;1.97;;
15132;SDS011;7667;51.232;17.110;2023-02-02T05:40:04;5.93;;;1.90;;
15132;SDS011;7667;51.232;17.110;2023-02-02T05:42:31;7.23;;;1.70;;
15132;SDS011;7667;51.232;17.110;2023-02-02T05:44:59;4.80;;;1.47;;
15132;SDS011;7667;51.232;17.110;2023-02-02T05:47:27;4.60;;;1.53;;
15132;SDS011;7667;51.232;17.110;2023-02-02T05:49:54;4.87;;;1.70;;
15132;SDS011;7667;51.232;17.110;2023-02-02T05:52:22;5.10;;;1.77;;
15132;SDS011;7667;51.232;17.110;2023-02-02T05:54:51;4.57;;;1.33;;
15132;SDS011;7667;51.232;17.110;2023-02-02T05:57:18;4.00;;;1.70;;
15132;SDS011;7667;51.232;17.110;2023-02-02T05:59:46;3.50;;;1.50;;
15132;SDS011;7667;51.232;17.110;2023-02-02T06:02:13;5.43;;;1.50;;
15132;SDS011;7667;51.232;17.110;2023-02-02T06:04:40;7.43;;;1.90;;
15132;SDS011;7667;51.232;17.110;2023-02-02T06:07:08;4.77;;;1.60;;
15132;SDS011;7667;51.232;17.110;2023-02-02T06:09:35;5.27;;;1.83;;
15132;SDS011;7667;51.232;17.110;2023-02-02T06:12:03;6.17;;;1.50;;
15132;SDS011;7667;51.232;17.110;2023-02-02T06:14:31;4.87;;;1.47;;
15132;SDS011;7667;51.232;17.110;2023-02-02T06:16:59;3.63;;;1.80;;
15132;SDS011;7667;51.232;17.110;2023-02-02T06:19:26;4.87;;;1.50;;
15132;SDS011;7667;51.232;17.110;2023-02-02T06:21:54;3.73;;;1.40;;
15132;SDS011;7667;51.232;17.110;2023-02-02T06:24:21;6.57;;;1.67;;
15132;SDS011;7667;51.232;17.110;2023-02-02T06:26:50;3.73;;;1.30;;
15132;SDS011;7667;51.232;17.110;2023-02-02T06:29:17;5.03;;;1.53;;
15132;SDS011;7667;51.232;17.110;2023-02-02T06:31:45;3.10;;;1.40;;
15132;SDS011;7667;51.232;17.110;2023-02-02T06:34:12;5.53;;;1.50;;
15132;SDS011;7667;51.232;17.110;2023-02-02T06:36:40;3.80;;;1.57;;
15132;SDS011;7667;51.232;17.110;2023-02-02T06:39:08;5.00;;;1.57;;
15132;SDS011;7667;51.232;17.110;2023-02-02T06:41:36;5.07;;;1.33;;
15132;SDS011;7667;51.232;17.110;2023-02-02T06:44:03;3.70;;;1.20;;
15132;SDS011;7667;51.232;17.110;2023-02-02T06:46:31;2.53;;;1.33;;
15132;SDS011;7667;51.232;17.110;2023-02-02T06:48:58;5.13;;;1.53;;
15132;SDS011;7667;51.232;17.110;2023-02-02T06:51:26;4.47;;;1.60;;
15132;SDS011;7667;51.232;17.110;2023-02-02T06:53:53;3.07;;;1.20;;
15132;SDS011;7667;51.232;17.110;2023-02-02T06:56:24;3.07;;;1.43;;
15132;SDS011;7667;51.232;17.110;2023-02-02T06:58:51;4.13;;;1.00;;
15132;SDS011;7667;51.232;17.110;2023-02-02T07:01:19;3.10;;;1.17;;
15132;SDS011;7667;51.232;17.110;2023-02-02T07:03:47;3.63;;;1.30;;
15132;SDS011;7667;51.232;17.110;2023-02-02T07:06:19;3.33;;;1.00;;
15132;SDS011;7667;51.232;17.110;2023-02-02T07:08:51;4.20;;;1.00;;
15132;SDS011;7667;51.232;17.110;2023-02-02T07:11:31;5.70;;;1.37;;
15132;SDS011;7667;51.232;17.110;2023-02-02T07:14:06;3.60;;;1.20;;
15132;SDS011;7667;51.232;17.110;2023-02-02T07:16:34;3.57;;;1.10;;
15132;SDS011;7667;51.232;17.110;2023-02-02T07:19:02;3.33;;;1.10;;
15132;SDS011;7667;51.232;17.110;2023-02-02T07:21:29;2.37;;;1.20;;
15132;SDS011;7667;51.232;17.110;2023-02-02T07:24:02;3.43;;;0.90;;
15132;SDS011;7667;51.232;17.110;2023-02-02T07:26:32;3.07;;;0.90;;
15132;SDS011;7667;51.232;17.110;2023-02-02T07:29:01;4.03;;;1.20;;
15132;SDS011;7667;51.232;17.110;2023-02-02T07:31:30;4.43;;;1.20;;
15132;SDS011;7667;51.232;17.110;2023-02-02T07:34:01;3.17;;;1.20;;
15132;SDS011;7667;51.232;17.110;2023-02-02T07:36:29;3.07;;;1.30;;
15132;SDS011;7667;51.232;17.110;2023-02-02T07:38:57;3.03;;;1.00;;
15132;SDS011;7667;51.232;17.110;2023-02-02T07:41:25;3.77;;;1.10;;
15132;SDS011;7667;51.232;17.110;2023-02-02T07:43:53;3.17;;;1.20;;
15132;SDS011;7667;51.232;17.110;2023-02-02T07:46:21;3.87;;;1.27;;
15132;SDS011;7667;51.232;17.110;2023-02-02T07:48:51;4.30;;;1.30;;
15132;SDS011;7667;51.232;17.110;2023-02-02T07:51:21;3.93;;;1.40;;
15132;SDS011;7667;51.232;17.110;2023-02-02T07:53:51;3.27;;;1.27;;
15132;SDS011;7667;51.232;17.110;2023-02-02T07:56:24;3.70;;;1.10;;
15132;SDS011;7667;51.232;17.110;2023-02-02T07:58:56;2.17;;;0.97;;
15132;SDS011;7667;51.232;17.110;2023-02-02T08:01:25;2.83;;;1.00;;
15132;SDS011;7667;51.232;17.110;2023-02-02T08:03:55;3.63;;;1.23;;
15132;SDS011;7667;51.232;17.110;2023-02-02T08:06:30;2.83;;;1.10;;
15132;SDS011;7667;51.232;17.110;2023-02-02T08:09:00;3.13;;;0.97;;
15132;SDS011;7667;51.232;17.110;2023-02-02T08:11:34;2.80;;;1.00;;
15132;SDS011;7667;51.232;17.110;2023-02-02T08:14:04;1.90;;;1.00;;
15132;SDS011;7667;51.232;17.110;2023-02-02T08:16:32;2.83;;;1.30;;
15132;SDS011;7667;51.232;17.110;2023-02-02T08:19:00;2.23;;;1.00;;
15132;SDS011;7667;51.232;17.110;2023-02-02T08:21:28;3.47;;;1.20;;
15132;SDS011;7667;51.232;17.110;2023-02-02T08:23:59;1.83;;;0.70;;
15132;SDS011;7667;51.232;17.110;2023-02-02T08:26:28;2.03;;;0.80;;
15132;SDS011;7667;51.232;17.110;2023-02-02T08:28:58;2.67;;;1.00;;
15132;SDS011;7667;51.232;17.110;2023-02-02T08:31:30;1.73;;;0.70;;
15132;SDS011;7667;51.232;17.110;2023-02-02T08:34:01;2.70;;;0.90;;
15132;SDS011;7667;51.232;17.110;2023-02-02T08:36:29;2.60;;;0.80;;
15132;SDS011;7667;51.232;17.110;2023-02-02T08:39:01;1.77;;;0.70;;
15132;SDS011;7667;51.232;17.110;2023-02-02T08:41:33;2.50;;;1.10;;
15132;SDS011;7667;51.232;17.110;2023-02-02T08:44:06;2.80;;;1.07;;
15132;SDS011;7667;51.232;17.110;2023-02-02T08:46:37;1.20;;;0.70;;
15132;SDS011;7667;51.232;17.110;2023-02-02T08:49:04;1.67;;;1.00;;
15132;SDS011;7667;51.232;17.110;2023-02-02T08:51:32;2.87;;;1.00;;
15132;SDS011;7667;51.232;17.110;2023-02-02T08:53:59;4.33;;;1.30;;
15132;SDS011;7667;51.232;17.110;2023-02-02T08:56:27;3.17;;;1.10;;
15132;SDS011;7667;51.232;17.110;2023-02-02T08:58:55;2.00;;;0.90;;
15132;SDS011;7667;51.232;17.110;2023-02-02T09:01:25;4.00;;;1.10;;
15132;SDS011;7667;51.232;17.110;2023-02-02T09:03:58;3.13;;;1.10;;
15132;SDS011;7667;51.232;17.110;2023-02-02T09:06:31;3.53;;;0.90;;
15132;SDS011;7667;51.232;17.110;2023-02-02T09:09:02;3.10;;;1.20;;
15132;SDS011;7667;51.232;17.110;2023-02-02T09:11:32;3.00;;;0.90;;
15132;SDS011;7667;51.232;17.110;2023-02-02T09:14:01;2.57;;;1.13;;
15132;SDS011;7667;51.232;17.110;2023-02-02T09:16:29;3.07;;;1.27;;
15132;SDS011;7667;51.232;17.110;2023-02-02T09:18:56;3.00;;;1.03;;
15132;SDS011;7667;51.232;17.110;2023-02-02T09:21:24;2.37;;;1.10;;
15132;SDS011;7667;51.232;17.110;2023-02-02T09:23:52;3.23;;;1.20;;
15132;SDS011;7667;51.232;17.110;2023-02-02T09:26:21;3.47;;;1.20;;
15132;SDS011;7667;51.232;17.110;2023-02-02T09:28:52;2.97;;;1.50;;
15132;SDS011;7667;51.232;17.110;2023-02-02T09:31:22;3.80;;;1.30;;
15132;SDS011;7667;51.232;17.110;2023-02-02T09:33:52;2.63;;;0.87;;
15132;SDS011;7667;51.232;17.110;2023-02-02T09:36:20;2.13;;;1.20;;
15132;SDS011;7667;51.232;17.110;2023-02-02T09:38:49;2.53;;;1.20;;
15132;SDS011;7667;51.232;17.110;2023-02-02T09:52:26;4.90;;;1.90;;
15132;SDS011;7667;51.232;17.110;2023-02-02T09:55:17;3.57;;;1.27;;
15132;SDS011;7667;51.232;17.110;2023-02-02T09:58:38;3.63;;;1.17;;
15132;SDS011;7667;51.232;17.110;2023-02-02T10:01:17;2.40;;;1.10;;
15132;SDS011;7667;51.232;17.110;2023-02-02T10:06:56;3.40;;;1.27;;
15132;SDS011;7667;51.232;17.110;2023-02-02T10:18:26;3.53;;;1.23;;
15132;SDS011;7667;51.232;17.110;2023-02-02T10:24:26;3.87;;;1.20;;
15132;SDS011;7667;51.232;17.110;2023-02-02T10:26:59;2.40;;;1.13;;
15132;SDS011;7667;51.232;17.110;2023-02-02T10:39:08;3.37;;;1.53;;
15132;SDS011;7667;51.232;17.110;2023-02-02T10:42:09;3.30;;;1.07;;
15132;SDS011;7667;51.232;17.110;2023-02-02T10:45:18;7.20;;;2.70;;
15132;SDS011;7667;51.232;17.110;2023-02-02T10:47:46;3.47;;;2.00;;
15132;SDS011;7667;51.232;17.110;2023-02-02T10:50:19;4.00;;;1.77;;
15132;SDS011;7667;51.232;17.110;2023-02-02T10:52:52;5.10;;;1.63;;
15132;SDS011;7667;51.232;17.110;2023-02-02T10:58:39;2.97;;;1.43;;
15132;SDS011;7667;51.232;17.110;2023-02-02T11:01:33;3.10;;;1.27;;
15132;SDS011;7667;51.232;17.110;2023-02-02T11:04:01;3.47;;;1.20;;
15132;SDS011;7667;51.232;17.110;2023-02-02T11:06:47;4.97;;;1.43;;
15132;SDS011;7667;51.232;17.110;2023-02-02T11:09:25;2.60;;;1.20;;
15132;SDS011;7667;51.232;17.110;2023-02-02T11:12:02;2.77;;;1.20;;
15132;SDS011;7667;51.232;17.110;2023-02-02T11:14:53;2.47;;;1.17;;
15132;SDS011;7667;51.232;17.110;2023-02-02T11:17:27;4.13;;;1.27;;
15132;SDS011;7667;51.232;17.110;2023-02-02T11:19:55;4.43;;;1.37;;
15132;SDS011;7667;51.232;17.110;2023-02-02T11:22:33;4.10;;;1.30;;
15132;SDS011;7667;51.232;17.110;2023-02-02T11:25:05;3.67;;;1.20;;
15132;SDS011;7667;51.232;17.110;2023-02-02T11:27:52;4.17;;;1.20;;
15132;SDS011;7667;51.232;17.110;2023-02-02T11:32:52;2.30;;;0.93;;
15132;SDS011;7667;51.232;17.110;2023-02-02T11:35:25;3.10;;;1.20;;
15132;SDS011;7667;51.232;17.110;2023-02-02T11:40:30;4.30;;;1.30;;
15132;SDS011;7667;51.232;17.110;2023-02-02T11:43:13;3.53;;;1.60;;
15132;SDS011;7667;51.232;17.110;2023-02-02T11:46:16;4.93;;;1.70;;
15132;SDS011;7667;51.232;17.110;2023-02-02T11:49:05;2.67;;;1.30;;
15132;SDS011;7667;51.232;17.110;2023-02-02T11:51:45;3.20;;;1.10;;
15132;SDS011;7667;51.232;17.110;2023-02-02T11:54:31;2.47;;;1.10;;
15132;SDS011;7667;51.232;17.110;2023-02-02T11:57:02;3.63;;;1.57;;
15132;SDS011;7667;51.232;17.110;2023-02-02T11:59:38;7.30;;;2.07;;
15132;SDS011;7667;51.232;17.110;2023-02-02T12:05:41;4.57;;;1.60;;
15132;SDS011;7667;51.232;17.110;2023-02-02T12:07:45;6.37;;;2.20;;
15132;SDS011;7667;51.232;17.110;2023-02-02T12:10:35;4.77;;;1.57;;
15132;SDS011;7667;51.232;17.110;2023-02-02T12:15:57;4.27;;;1.90;;
15132;SDS011;7667;51.232;17.110;2023-02-02T12:27:57;4.30;;;1.90;;
15132;SDS011;7667;51.232;17.110;2023-02-02T12:30:49;4.67;;;2.03;;
15132;SDS011;7667;51.232;17.110;2023-02-02T12:39:31;3.70;;;1.70;;
15132;SDS011;7667;51.232;17.110;2023-02-02T12:45:29;2.23;;;1.40;;
15132;SDS011;7667;51.232;17.110;2023-02-02T12:54:08;5.70;;;2.00;;
15132;SDS011;7667;51.232;17.110;2023-02-02T12:59:55;4.97;;;1.90;;
15132;SDS011;7667;51.232;17.110;2023-02-02T13:08:41;3.53;;;1.53;;
15132;SDS011;7667;51.232;17.110;2023-02-02T13:14:16;3.23;;;1.53;;
15132;SDS011;7667;51.232;17.110;2023-02-02T13:16:56;2.77;;;1.43;;
15132;SDS011;7667;51.232;17.110;2023-02-02T13:19:39;3.80;;;1.40;;
15132;SDS011;7667;51.232;17.110;2023-02-02T13:22:16;2.77;;;1.70;;
15132;SDS011;7667;51.232;17.110;2023-02-02T13:24:54;4.43;;;1.97;;
15132;SDS011;7667;51.232;17.110;2023-02-02T13:27:26;3.20;;;1.77;;
15132;SDS011;7667;51.232;17.110;2023-02-02T13:29:57;3.17;;;1.87;;
15132;SDS011;7667;51.232;17.110;2023-02-02T13:33:08;6.60;;;2.53;;
15132;SDS011;7667;51.232;17.110;2023-02-02T13:35:50;3.37;;;2.00;;
15132;SDS011;7667;51.232;17.110;2023-02-02T13:38:25;4.83;;;2.10;;
15132;SDS011;7667;51.232;17.110;2023-02-02T13:41:01;3.53;;;2.00;;
15132;SDS011;7667;51.232;17.110;2023-02-02T13:46:37;3.70;;;1.70;;
15132;SDS011;7667;51.232;17.110;2023-02-02T13:49:27;4.33;;;1.73;;
15132;SDS011;7667;51.232;17.110;2023-02-02T14:01:16;4.50;;;1.63;;
15132;SDS011;7667;51.232;17.110;2023-02-02T14:03:52;3.57;;;1.60;;
15132;SDS011;7667;51.232;17.110;2023-02-02T14:06:23;4.00;;;1.97;;
15132;SDS011;7667;51.232;17.110;2023-02-02T14:08:59;5.90;;;2.37;;
15132;SDS011;7667;51.232;17.110;2023-02-02T14:11:33;4.97;;;1.87;;
15132;SDS011;7667;51.232;17.110;2023-02-02T14:14:17;4.97;;;2.50;;
15132;SDS011;7667;51.232;17.110;2023-02-02T14:27:59;4.57;;;1.60;;
15132;SDS011;7667;51.232;17.110;2023-02-02T14:30:31;2.83;;;1.33;;
15132;SDS011;7667;51.232;17.110;2023-02-02T14:38:30;3.40;;;1.60;;
15132;SDS011;7667;51.232;17.110;2023-02-02T14:41:48;5.40;;;2.93;;
15132;SDS011;7667;51.232;17.110;2023-02-02T14:48:37;5.90;;;3.60;;
15132;SDS011;7667;51.232;17.110;2023-02-02T14:55:59;6.57;;;3.40;;
15132;SDS011;7667;51.232;17.110;2023-02-02T15:25:55;6.70;;;3.10;;
15132;SDS011;7667;51.232;17.110;2023-02-02T15:34:23;5.40;;;2.80;;
15132;SDS011;7667;51.232;17.110;2023-02-02T15:37:18;4.53;;;2.93;;
15132;SDS011;7667;51.232;17.110;2023-02-02T15:39:56;3.73;;;2.43;;
15132;SDS011;7667;51.232;17.110;2023-02-02T15:42:36;3.53;;;2.10;;
15132;SDS011;7667;51.232;17.110;2023-02-02T15:47:55;8.33;;;4.00;;
15132;SDS011;7667;51.232;17.110;2023-02-02T15:50:25;10.77;;;4.13;;
15132;SDS011;7667;51.232;17.110;2023-02-02T15:52:53;8.60;;;4.87;;
15132;SDS011;7667;51.232;17.110;2023-02-02T15:57:56;4.80;;;2.60;;
15132;SDS011;7667;51.232;17.110;2023-02-02T16:02:58;4.20;;;1.50;;
15132;SDS011;7667;51.232;17.110;2023-02-02T16:05:56;4.27;;;2.47;;
15132;SDS011;7667;51.232;17.110;2023-02-02T16:08:25;4.47;;;2.00;;
15132;SDS011;7667;51.232;17.110;2023-02-02T16:11:00;2.33;;;1.60;;
15132;SDS011;7667;51.232;17.110;2023-02-02T16:13:41;2.87;;;1.73;;
15132;SDS011;7667;51.232;17.110;2023-02-02T16:16:38;3.43;;;2.00;;
15132;SDS011;7667;51.232;17.110;2023-02-02T16:21:35;4.63;;;2.70;;
15132;SDS011;7667;51.232;17.110;2023-02-02T16:24:23;3.00;;;2.00;;
15132;SDS011;7667;51.232;17.110;2023-02-02T16:26:57;3.13;;;2.17;;
15132;SDS011;7667;51.232;17.110;2023-02-02T16:29:27;3.20;;;2.47;;
15132;SDS011;7667;51.232;17.110;2023-02-02T16:31:56;4.07;;;3.17;;
15132;SDS011;7667;51.232;17.110;2023-02-02T16:34:45;3.67;;;3.00;;
15132;SDS011;7667;51.232;17.110;2023-02-02T16:37:14;2.77;;;2.37;;
15132;SDS011;7667;51.232;17.110;2023-02-02T16:40:24;3.40;;;2.40;;
15132;SDS011;7667;51.232;17.110;2023-02-02T16:43:38;2.83;;;2.50;;
15132;SDS011;7667;51.232;17.110;2023-02-02T16:45:56;2.53;;;2.00;;
15132;SDS011;7667;51.232;17.110;2023-02-02T16:48:41;2.20;;;1.80;;
15132;SDS011;7667;51.232;17.110;2023-02-02T16:51:23;3.03;;;2.27;;
15132;SDS011;7667;51.232;17.110;2023-02-02T16:54:20;2.97;;;2.20;;
15132;SDS011;7667;51.232;17.110;2023-02-02T16:56:50;3.67;;;2.40;;
15132;SDS011;7667;51.232;17.110;2023-02-02T16:59:27;3.50;;;2.00;;
15132;SDS011;7667;51.232;17.110;2023-02-02T17:02:47;3.33;;;2.10;;
15132;SDS011;7667;51.232;17.110;2023-02-02T17:04:59;2.50;;;1.60;;
15132;SDS011;7667;51.232;17.110;2023-02-02T17:07:32;4.20;;;1.90;;
15132;SDS011;7667;51.232;17.110;2023-02-02T17:10:11;2.07;;;1.80;;
15132;SDS011;7667;51.232;17.110;2023-02-02T17:12:38;2.73;;;2.07;;
15132;SDS011;7667;51.232;17.110;2023-02-02T17:17:42;3.67;;;1.87;;
15132;SDS011;7667;51.232;17.110;2023-02-02T17:20:14;2.73;;;1.80;;
15132;SDS011;7667;51.232;17.110;2023-02-02T17:22:48;2.30;;;1.60;;
15132;SDS011;7667;51.232;17.110;2023-02-02T17:25:36;3.33;;;1.70;;
15132;SDS011;7667;51.232;17.110;2023-02-02T17:28:13;2.83;;;1.90;;
15132;SDS011;7667;51.232;17.110;2023-02-02T17:30:47;2.93;;;1.80;;
15132;SDS011;7667;51.232;17.110;2023-02-02T17:33:22;3.87;;;1.90;;
15132;SDS011;7667;51.232;17.110;2023-02-02T17:35:50;2.37;;;1.67;;
15132;SDS011;7667;51.232;17.110;2023-02-02T17:38:22;2.20;;;1.40;;
15132;SDS011;7667;51.232;17.110;2023-02-02T17:40:50;3.70;;;1.90;;
15132;SDS011;7667;51.232;17.110;2023-02-02T17:43:18;3.20;;;1.90;;
15132;SDS011;7667;51.232;17.110;2023-02-02T17:45:46;3.10;;;2.10;;
15132;SDS011;7667;51.232;17.110;2023-02-02T17:48:13;3.87;;;2.23;;
15132;SDS011;7667;51.232;17.110;2023-02-02T17:50:41;3.80;;;2.60;;
15132;SDS011;7667;51.232;17.110;2023-02-02T17:53:14;1.70;;;1.50;;
15132;SDS011;7667;51.232;17.110;2023-02-02T17:55:46;1.80;;;1.20;;
15132;SDS011;7667;51.232;17.110;2023-02-02T17:58:16;2.00;;;1.20;;
15132;SDS011;7667;51.232;17.110;2023-02-02T18:00:44;1.97;;;1.60;;
15132;SDS011;7667;51.232;17.110;2023-02-02T18:05:49;1.90;;;1.60;;
15132;SDS011;7667;51.232;17.110;2023-02-02T18:08:17;2.50;;;1.70;;
15132;SDS011;7667;51.232;17.110;2023-02-02T18:10:45;2.33;;;1.97;;
15132;SDS011;7667;51.232;17.110;2023-02-02T18:13:13;3.27;;;2.10;;
15132;SDS011;7667;51.232;17.110;2023-02-02T18:15:44;3.40;;;1.80;;
15132;SDS011;7667;51.232;17.110;2023-02-02T18:18:13;3.10;;;1.97;;
15132;SDS011;7667;51.232;17.110;2023-02-02T18:20:45;3.47;;;2.40;;
15132;SDS011;7667;51.232;17.110;2023-02-02T18:23:15;3.23;;;1.83;;
15132;SDS011;7667;51.232;17.110;2023-02-02T18:25:44;3.13;;;2.03;;
15132;SDS011;7667;51.232;17.110;2023-02-02T18:28:12;2.83;;;2.10;;
15132;SDS011;7667;51.232;17.110;2023-02-02T18:30:43;3.37;;;2.20;;
15132;SDS011;7667;51.232;17.110;2023-02-02T18:33:13;3.17;;;2.20;;
15132;SDS011;7667;51.232;17.110;2023-02-02T18:35:43;3.47;;;2.20;;
15132;SDS011;7667;51.232;17.110;2023-02-02T18:38:13;3.07;;;2.23;;
15132;SDS011;7667;51.232;17.110;2023-02-02T18:40:41;3.43;;;2.00;;
15132;SDS011;7667;51.232;17.110;2023-02-02T18:43:08;3.10;;;1.97;;
15132;SDS011;7667;51.232;17.110;2023-02-02T18:45:36;2.23;;;1.60;;
15132;SDS011;7667;51.232;17.110;2023-02-02T18:48:03;3.17;;;2.27;;